Time;durP1;ratioP1;P1;durP2;ratioP2;P2;SDS_P1;SDS_P2;PMS_P1;PMS_P2;Temp;Humidity;BMP_temperature;BMP_pressure;BME280_temperature;BME280_humidity;BME280_pressure;Samples;Min_cycle;Max_cycle;Signal;HPM_P1;HPM_P2
2021/09/14 00:01:16;;;;;;;6.80;3.53;;;14.90;99.90;;;;;;6297184;22;20206;-80
2021/09/14 00:03:43;;;;;;;4.13;2.80;;;14.90;99.90;;;;;;6295637;22;20164;-79
2021/09/14 00:06:10;;;;;;;4.63;2.70;;;14.80;99.90;;;;;;6296817;22;20175;-80
2021/09/14 00:08:37;;;;;;;5.53;3.10;;;14.80;99.90;;;;;;6296036;22;20599;-79
2021/09/14 00:11:03;;;;;;;3.93;2.73;;;14.80;99.90;;;;;;6296537;22;20488;-79
2021/09/14 00:13:32;;;;;;;5.10;3.20;;;14.80;99.90;;;;;;6296997;22;20472;-80
2021/09/14 00:15:58;;;;;;;6.27;3.13;;;14.80;99.90;;;;;;6296151;22;20591;-80
2021/09/14 00:18:25;;;;;;;3.07;2.77;;;14.70;99.90;;;;;;6296916;22;20488;-79
2021/09/14 00:20:52;;;;;;;5.67;3.17;;;14.70;99.90;;;;;;6296159;22;20422;-80
2021/09/14 00:23:19;;;;;;;4.00;2.50;;;14.70;99.90;;;;;;6297021;22;20430;-79
2021/09/14 00:25:46;;;;;;;5.17;3.60;;;14.70;99.90;;;;;;6296027;22;20179;-81
2021/09/14 00:28:12;;;;;;;4.07;2.70;;;14.70;99.90;;;;;;6297273;22;20541;-80
2021/09/14 00:30:41;;;;;;;6.13;3.50;;;14.70;99.90;;;;;;6296889;22;20164;-77
2021/09/14 00:33:07;;;;;;;3.77;2.97;;;14.70;99.90;;;;;;6296453;22;20552;-81
2021/09/14 00:35:34;;;;;;;5.43;3.07;;;14.60;99.90;;;;;;6297614;22;20781;-80
2021/09/14 00:38:01;;;;;;;4.60;3.23;;;14.70;99.90;;;;;;6296061;22;20200;-80
2021/09/14 00:40:28;;;;;;;5.40;3.20;;;14.70;99.90;;;;;;6297100;22;20182;-79
2021/09/14 00:42:55;;;;;;;3.83;3.27;;;14.70;99.90;;;;;;6297055;22;20192;-80
2021/09/14 00:45:21;;;;;;;6.67;4.00;;;14.60;99.90;;;;;;6298541;22;20175;-80
2021/09/14 00:47:49;;;;;;;6.33;3.10;;;14.60;99.90;;;;;;6296324;22;20168;-79
2021/09/14 00:50:16;;;;;;;5.07;3.70;;;14.60;99.90;;;;;;6296868;22;20214;-78
2021/09/14 00:52:43;;;;;;;6.30;3.63;;;14.60;99.90;;;;;;6296336;22;20639;-80
2021/09/14 00:55:11;;;;;;;5.37;3.53;;;14.60;99.90;;;;;;6298137;22;20179;-79
2021/09/14 00:57:37;;;;;;;5.17;3.27;;;14.60;99.90;;;;;;6297313;22;20335;-82
2021/09/14 01:00:06;;;;;;;5.17;3.50;;;14.60;99.90;;;;;;6296219;22;20176;-80
2021/09/14 01:02:33;;;;;;;3.93;3.50;;;14.60;99.90;;;;;;6296609;22;20275;-79
2021/09/14 01:05:01;;;;;;;6.13;3.60;;;14.60;99.90;;;;;;6297267;22;20172;-79
2021/09/14 01:07:28;;;;;;;4.30;2.97;;;14.60;99.90;;;;;;6297045;22;20167;-78
2021/09/14 01:09:56;;;;;;;5.10;3.73;;;14.60;99.90;;;;;;6296983;22;20195;-78
2021/09/14 01:12:23;;;;;;;5.53;3.33;;;14.60;99.90;;;;;;6297561;22;20176;-79
2021/09/14 01:14:53;;;;;;;4.80;3.00;;;14.60;99.90;;;;;;6296271;22;20180;-80
2021/09/14 01:17:21;;;;;;;5.90;3.77;;;14.50;99.90;;;;;;6296806;22;20183;-79
2021/09/14 01:19:47;;;;;;;4.20;3.53;;;14.50;99.90;;;;;;6296903;22;20176;-79
2021/09/14 01:22:16;;;;;;;6.50;3.77;;;14.50;99.90;;;;;;6297000;22;20800;-79
2021/09/14 01:24:44;;;;;;;6.33;3.77;;;14.50;99.90;;;;;;6296396;22;20171;-79
2021/09/14 01:27:12;;;;;;;5.63;3.50;;;14.40;99.90;;;;;;6297286;22;20575;-80
2021/09/14 01:32:23;;;;;;;6.67;3.77;;;14.40;99.90;;;;;;6297412;22;20186;-80
2021/09/14 01:34:50;;;;;;;10.10;5.10;;;14.40;99.90;;;;;;6295928;22;20172;-80
2021/09/14 01:37:17;;;;;;;7.57;4.00;;;14.40;99.90;;;;;;6296507;22;20203;-81
2021/09/14 01:39:45;;;;;;;7.77;5.33;;;14.30;99.90;;;;;;6297293;22;20172;-81
2021/09/14 01:42:11;;;;;;;6.70;4.70;;;14.30;99.90;;;;;;6295515;22;20192;-79
2021/09/14 01:44:38;;;;;;;6.40;4.20;;;14.30;99.90;;;;;;6295778;22;20176;-79
2021/09/14 01:47:05;;;;;;;4.67;4.20;;;14.30;99.90;;;;;;6296911;22;20171;-80
2021/09/14 01:49:32;;;;;;;7.27;4.70;;;14.20;99.90;;;;;;6296045;22;20164;-81
2021/09/14 01:52:00;;;;;;;8.30;4.77;;;14.20;99.90;;;;;;6294743;22;20172;-82
2021/09/14 01:54:27;;;;;;;6.17;3.93;;;14.30;99.90;;;;;;6296989;22;20174;-80
2021/09/14 01:56:55;;;;;;;5.20;4.17;;;14.20;99.90;;;;;;6295979;22;20218;-80
2021/09/14 01:59:23;;;;;;;6.87;3.83;;;14.20;99.90;;;;;;6297210;22;20568;-80
2021/09/14 02:01:56;;;;;;;9.00;4.40;;;14.20;99.90;;;;;;6296347;22;20195;-80
2021/09/14 02:04:34;;;;;;;6.00;3.73;;;14.20;99.90;;;;;;6295359;22;20647;-81
2021/09/14 02:07:20;;;;;;;7.87;4.13;;;14.10;99.90;;;;;;6295788;22;20168;-79
2021/09/14 02:43:17;;;;;;;6.67;5.47;;;14.00;99.90;;;;;;6230547;23;20229;-81
2021/09/14 02:56:57;;;;;;;8.00;4.93;;;14.00;99.90;;;;;;6295677;22;20167;-81
2021/09/14 02:59:23;;;;;;;7.80;5.23;;;13.90;99.90;;;;;;6294137;22;20175;-81
2021/09/14 03:01:51;;;;;;;6.23;4.13;;;13.90;99.90;;;;;;6294868;22;20206;-81
2021/09/14 03:04:18;;;;;;;5.07;4.17;;;13.90;99.90;;;;;;6294848;22;20699;-81
2021/09/14 03:06:45;;;;;;;6.87;4.63;;;13.90;99.90;;;;;;6294545;22;20172;-81
2021/09/14 03:09:12;;;;;;;7.03;5.07;;;13.90;99.90;;;;;;6295481;22;20428;-81
2021/09/14 03:11:39;;;;;;;6.23;4.47;;;13.90;99.90;;;;;;6295490;22;20203;-81
2021/09/14 03:14:06;;;;;;;7.20;4.77;;;13.90;99.90;;;;;;6294405;22;20175;-78
2021/09/14 03:16:32;;;;;;;5.97;4.70;;;13.80;99.90;;;;;;6295610;22;20960;-81
2021/09/14 03:19:01;;;;;;;10.80;4.97;;;13.90;99.90;;;;;;6295548;22;20580;-79
2021/09/14 03:21:27;;;;;;;7.93;4.90;;;13.80;99.90;;;;;;6295818;22;20175;-79
2021/09/14 03:23:54;;;;;;;6.73;4.60;;;13.80;99.90;;;;;;6296530;22;20176;-80
2021/09/14 03:26:21;;;;;;;5.37;4.30;;;13.80;99.90;;;;;;6296717;22;20172;-80
2021/09/14 03:28:48;;;;;;;9.77;5.20;;;13.80;99.90;;;;;;6268319;22;20176;-79
2021/09/14 03:31:15;;;;;;;7.30;4.67;;;13.80;99.90;;;;;;6295989;22;20224;-80
2021/09/14 03:33:42;;;;;;;5.63;4.13;;;13.80;99.90;;;;;;6295750;22;20168;-79
2021/09/14 03:36:11;;;;;;;4.90;4.30;;;13.70;99.90;;;;;;6295631;22;20184;-79
2021/09/14 03:38:37;;;;;;;7.73;4.93;;;13.70;99.90;;;;;;6296143;22;20199;-80
2021/09/14 03:41:04;;;;;;;8.03;5.40;;;13.70;99.90;;;;;;6296267;22;20172;-81
2021/09/14 03:43:31;;;;;;;7.53;5.30;;;13.70;99.90;;;;;;6295634;22;20187;-80
2021/09/14 03:45:58;;;;;;;8.30;5.00;;;13.70;99.90;;;;;;6296239;22;20180;-80
2021/09/14 03:48:25;;;;;;;7.90;6.00;;;13.70;99.90;;;;;;6295420;22;20168;-80
2021/09/14 03:50:52;;;;;;;8.97;5.53;;;13.70;99.90;;;;;;6296935;22;20221;-81
2021/09/14 03:53:21;;;;;;;9.07;5.47;;;13.70;99.90;;;;;;6295982;22;20168;-80
2021/09/14 03:55:49;;;;;;;7.37;5.13;;;13.70;99.90;;;;;;6294793;22;20183;-79
2021/09/14 03:58:15;;;;;;;6.33;4.40;;;13.60;99.90;;;;;;6296159;22;20164;-80
2021/09/14 04:00:50;;;;;;;8.07;4.90;;;13.60;99.90;;;;;;6297062;22;20184;-80
2021/09/14 04:03:20;;;;;;;7.23;5.10;;;13.60;99.90;;;;;;6296562;22;20187;-81
2021/09/14 04:05:58;;;;;;;8.77;6.03;;;13.60;99.90;;;;;;6297159;22;20168;-81
2021/09/14 04:11:12;;;;;;;10.93;6.23;;;13.60;99.90;;;;;;6296867;22;20167;-80
2021/09/14 04:13:39;;;;;;;7.07;5.53;;;13.60;99.90;;;;;;6297746;22;20175;-80
2021/09/14 04:16:06;;;;;;;9.83;6.20;;;13.60;99.90;;;;;;6297497;22;20168;-80
2021/09/14 04:18:32;;;;;;;8.90;5.97;;;13.60;99.90;;;;;;6296799;22;20172;-79
2021/09/14 04:20:59;;;;;;;7.17;5.97;;;13.60;99.90;;;;;;6297369;22;20184;-81
2021/09/14 04:23:27;;;;;;;11.40;6.93;;;13.60;99.90;;;;;;6297299;22;20607;-79
2021/09/14 04:25:55;;;;;;;8.10;4.93;;;13.60;99.90;;;;;;6297257;22;20163;-80
2021/09/14 04:28:22;;;;;;;7.70;5.80;;;13.60;99.90;;;;;;6297664;22;20172;-80
2021/09/14 04:30:48;;;;;;;6.80;5.40;;;13.60;99.90;;;;;;6296958;22;20236;-79
2021/09/14 04:33:15;;;;;;;8.97;6.73;;;13.60;99.90;;;;;;6296385;22;20172;-81
2021/09/14 04:35:42;;;;;;;12.53;7.13;;;13.60;99.90;;;;;;6296636;22;20725;-79
2021/09/14 04:38:09;;;;;;;8.50;6.37;;;13.50;99.90;;;;;;6295858;22;20223;-81
2021/09/14 04:40:37;;;;;;;12.00;7.30;;;13.50;99.90;;;;;;6297243;22;20174;-81
2021/09/14 04:43:04;;;;;;;10.77;7.50;;;13.50;99.90;;;;;;6296880;22;20223;-79
2021/09/14 04:45:31;;;;;;;12.67;8.10;;;13.50;99.90;;;;;;6296152;22;20574;-80
2021/09/14 04:47:58;;;;;;;11.00;7.80;;;13.50;99.90;;;;;;6296220;22;20168;-81
2021/09/14 04:50:25;;;;;;;11.40;6.83;;;13.50;99.90;;;;;;6296448;22;20171;-79
2021/09/14 04:52:52;;;;;;;9.00;6.50;;;13.50;99.90;;;;;;6295436;22;20251;-81
2021/09/14 04:55:19;;;;;;;12.60;7.47;;;13.50;99.90;;;;;;6296275;22;20569;-81
2021/09/14 04:57:47;;;;;;;9.80;7.97;;;13.50;99.90;;;;;;6295512;22;20500;-81
2021/09/14 05:00:15;;;;;;;9.30;7.17;;;13.50;99.90;;;;;;6294805;22;20451;-82
2021/09/14 05:02:42;;;;;;;12.90;8.03;;;13.40;99.90;;;;;;6296851;22;20249;-82
2021/09/14 05:05:10;;;;;;;13.10;8.27;;;13.40;99.90;;;;;;6296282;22;20442;-82
2021/09/14 05:07:37;;;;;;;11.53;8.20;;;13.40;99.90;;;;;;6295358;22;20181;-81
2021/09/14 05:10:04;;;;;;;11.70;7.37;;;13.40;99.90;;;;;;6296742;22;20172;-80
2021/09/14 05:12:31;;;;;;;9.53;7.10;;;13.40;99.90;;;;;;6297286;22;20177;-80
2021/09/14 05:14:59;;;;;;;10.50;7.17;;;13.50;99.90;;;;;;6296648;22;20853;-79
2021/09/14 05:17:26;;;;;;;9.07;7.07;;;13.40;99.90;;;;;;6297867;22;20232;-79
2021/09/14 05:19:53;;;;;;;7.43;5.63;;;13.40;99.90;;;;;;6296932;22;20565;-79
2021/09/14 05:22:20;;;;;;;9.83;7.33;;;13.40;99.90;;;;;;6297099;22;20528;-80
2021/09/14 05:24:47;;;;;;;14.27;9.00;;;13.40;99.90;;;;;;6296793;22;20735;-80
2021/09/14 05:27:14;;;;;;;8.90;7.57;;;13.30;99.90;;;;;;6295821;22;20176;-80
2021/09/14 05:29:41;;;;;;;11.87;8.23;;;13.40;99.90;;;;;;6295961;22;20171;-81
2021/09/14 05:32:10;;;;;;;10.03;8.03;;;13.40;99.90;;;;;;6296826;22;20179;-80
2021/09/14 05:34:37;;;;;;;9.97;7.73;;;13.30;99.90;;;;;;6296408;22;20176;-79
2021/09/14 05:37:04;;;;;;;11.17;8.33;;;13.30;99.90;;;;;;6296898;22;20241;-80
2021/09/14 05:39:31;;;;;;;13.33;8.60;;;13.40;99.90;;;;;;6297112;22;20712;-80
2021/09/14 05:41:58;;;;;;;13.17;8.37;;;13.30;99.90;;;;;;6295964;22;20215;-80
2021/09/14 05:44:25;;;;;;;12.87;9.27;;;13.40;99.90;;;;;;6296775;22;20615;-79
2021/09/14 05:46:52;;;;;;;15.83;10.73;;;13.40;99.90;;;;;;6297676;22;20189;-79
2021/09/14 05:49:20;;;;;;;13.37;9.03;;;13.50;99.90;;;;;;6295959;22;20183;-80
2021/09/14 05:51:47;;;;;;;11.83;9.60;;;13.50;99.90;;;;;;6297199;22;20821;-81
2021/09/14 05:54:14;;;;;;;17.00;12.50;;;13.50;99.90;;;;;;6295996;22;20296;-81
2021/09/14 05:56:40;;;;;;;15.93;11.37;;;13.60;99.90;;;;;;6296043;22;20180;-81
2021/09/14 05:59:07;;;;;;;14.53;10.60;;;13.70;99.90;;;;;;6296522;22;20374;-80
2021/09/14 06:01:34;;;;;;;18.40;12.07;;;13.80;99.90;;;;;;6297029;22;20192;-80
2021/09/14 06:04:01;;;;;;;17.13;12.23;;;13.80;99.90;;;;;;6296435;22;20202;-81
2021/09/14 06:06:29;;;;;;;19.53;12.93;;;13.90;99.90;;;;;;6296857;22;20168;-78
2021/09/14 06:08:56;;;;;;;17.93;12.20;;;14.00;99.90;;;;;;6296797;22;20191;-80
2021/09/14 06:11:22;;;;;;;22.23;12.70;;;14.10;99.90;;;;;;6295781;22;20169;-82
2021/09/14 06:13:49;;;;;;;17.73;12.80;;;14.20;99.90;;;;;;6297456;22;20171;-80
2021/09/14 06:16:16;;;;;;;17.70;12.43;;;14.40;99.90;;;;;;6295283;22;20172;-81
2021/09/14 06:18:43;;;;;;;17.67;12.47;;;14.40;99.90;;;;;;6297073;22;20171;-80
2021/09/14 06:21:13;;;;;;;19.90;14.50;;;14.50;99.90;;;;;;6297086;22;20199;-79
2021/09/14 06:23:41;;;;;;;26.17;14.57;;;14.60;99.90;;;;;;6294974;22;20600;-82
2021/09/14 06:26:08;;;;;;;21.30;14.00;;;14.70;99.90;;;;;;6296753;22;20230;-82
2021/09/14 06:28:35;;;;;;;20.87;14.43;;;14.80;99.90;;;;;;6297465;22;20431;-82
2021/09/14 06:31:02;;;;;;;19.33;13.47;;;14.80;99.90;;;;;;6295898;22;20168;-81
2021/09/14 06:33:29;;;;;;;21.60;14.80;;;14.90;99.90;;;;;;6296479;22;20615;-83
2021/09/14 06:35:56;;;;;;;22.43;15.60;;;14.90;99.90;;;;;;6296218;22;20179;-81
2021/09/14 06:38:22;;;;;;;20.53;14.50;;;15.00;99.90;;;;;;6294092;22;20179;-82
2021/09/14 06:40:50;;;;;;;14.60;11.27;;;15.10;99.90;;;;;;6297605;22;20172;-81
2021/09/14 06:43:17;;;;;;;20.03;13.20;;;15.10;99.90;;;;;;6296753;22;20237;-81
2021/09/14 06:45:46;;;;;;;17.97;12.47;;;15.20;99.90;;;;;;6294904;22;20442;-81
2021/09/14 06:48:16;;;;;;;17.67;12.67;;;15.20;99.90;;;;;;6296403;22;20172;-80
2021/09/14 06:50:43;;;;;;;20.97;13.47;;;15.30;99.90;;;;;;6297570;22;20168;-81
2021/09/14 06:53:10;;;;;;;15.73;12.13;;;15.30;99.90;;;;;;6294387;22;20178;-81
2021/09/14 06:55:37;;;;;;;20.40;12.93;;;15.30;99.90;;;;;;6296938;22;20240;-81
2021/09/14 06:58:05;;;;;;;16.73;11.93;;;15.40;99.90;;;;;;6296121;22;20493;-81
2021/09/14 07:00:32;;;;;;;18.83;12.40;;;15.40;99.90;;;;;;6296177;22;20607;-81
2021/09/14 07:02:59;;;;;;;14.50;10.93;;;15.40;99.90;;;;;;6296121;22;20195;-81
2021/09/14 07:05:26;;;;;;;18.27;12.25;;;15.50;99.90;;;;;;6295859;22;20172;-79
2021/09/14 07:07:53;;;;;;;16.60;11.90;;;15.50;99.90;;;;;;6296644;22;20171;-81
2021/09/14 07:10:20;;;;;;;13.70;10.70;;;15.60;99.90;;;;;;6296222;22;20199;-79
2021/09/14 07:12:47;;;;;;;15.25;11.23;;;15.60;99.90;;;;;;6295915;22;20643;-82
2021/09/14 07:15:15;;;;;;;15.53;10.93;;;15.70;99.90;;;;;;6293785;22;20171;-82
2021/09/14 07:17:43;;;;;;;15.00;11.77;;;15.80;99.90;;;;;;6296012;22;20168;-82
2021/09/14 07:20:10;;;;;;;13.98;10.35;;;15.90;99.90;;;;;;6295611;22;20176;-80
2021/09/14 07:22:37;;;;;;;21.03;12.63;;;15.90;99.90;;;;;;6297645;22;20171;-80
2021/09/14 07:25:05;;;;;;;14.57;11.23;;;16.00;99.90;;;;;;6296215;22;20191;-80
2021/09/14 07:27:32;;;;;;;14.33;11.50;;;16.00;99.90;;;;;;6296324;22;20164;-81
2021/09/14 07:29:59;;;;;;;15.00;12.05;;;16.10;99.90;;;;;;6296863;22;20172;-81
2021/09/14 07:32:28;;;;;;;15.90;10.95;;;16.20;99.90;;;;;;6297761;22;20172;-82
2021/09/14 07:34:54;;;;;;;15.90;12.18;;;16.30;99.90;;;;;;6297433;22;20620;-81
2021/09/14 07:37:21;;;;;;;16.10;11.30;;;16.40;99.90;;;;;;6298494;22;20863;-80
2021/09/14 07:39:48;;;;;;;15.97;11.77;;;16.50;99.90;;;;;;6298436;22;20183;-81
2021/09/14 07:42:15;;;;;;;14.35;12.13;;;16.60;99.90;;;;;;6297615;22;20247;-82
2021/09/14 07:44:42;;;;;;;17.05;11.68;;;16.60;99.90;;;;;;6297595;22;20199;-80
2021/09/14 07:47:08;;;;;;;12.32;10.90;;;16.60;99.90;;;;;;6297874;22;20175;-81
2021/09/14 07:49:37;;;;;;;12.60;10.35;;;16.70;99.90;;;;;;6297488;22;20347;-79
2021/09/14 07:52:04;;;;;;;11.57;10.20;;;16.80;99.90;;;;;;6297317;22;20195;-81
2021/09/14 07:54:31;;;;;;;15.27;11.20;;;16.80;99.90;;;;;;6297696;22;20242;-80
2021/09/14 07:56:58;;;;;;;12.02;10.77;;;16.90;99.90;;;;;;6298304;22;20179;-82
2021/09/14 07:59:25;;;;;;;13.02;10.93;;;16.90;99.90;;;;;;6298760;22;20176;-81
2021/09/14 08:01:52;;;;;;;13.55;10.20;;;17.00;99.90;;;;;;6298090;22;20185;-81
2021/09/14 08:04:18;;;;;;;12.00;10.27;;;17.10;99.90;;;;;;6298925;22;20223;-81
2021/09/14 08:06:47;;;;;;;11.95;10.60;;;17.20;99.90;;;;;;6298449;22;20179;-81
2021/09/14 08:09:13;;;;;;;14.05;11.18;;;17.30;99.90;;;;;;6298136;22;20560;-81
2021/09/14 08:11:40;;;;;;;14.98;10.90;;;17.40;99.90;;;;;;6298901;22;20431;-82
2021/09/14 08:14:07;;;;;;;13.02;10.32;;;17.60;99.90;;;;;;6299225;22;20179;-81
2021/09/14 08:16:34;;;;;;;10.65;9.57;;;17.70;99.90;;;;;;6298637;22;20180;-81
2021/09/14 08:19:02;;;;;;;14.13;10.55;;;17.90;99.90;;;;;;6298537;22;20178;-82
2021/09/14 08:21:29;;;;;;;12.48;9.38;;;18.00;99.90;;;;;;6298628;22;20253;-82
2021/09/14 08:23:57;;;;;;;15.02;10.10;;;18.20;99.90;;;;;;6296358;22;20194;-82
2021/09/14 08:26:24;;;;;;;9.75;8.75;;;18.40;99.90;;;;;;6298182;22;20187;-85
2021/09/14 08:28:52;;;;;;;12.77;8.75;;;18.60;99.90;;;;;;6299994;22;20199;-83
2021/09/14 08:31:19;;;;;;;12.85;8.70;;;18.80;99.90;;;;;;6299134;22;20218;-83
2021/09/14 08:33:46;;;;;;;10.38;8.52;;;19.10;99.90;;;;;;6299440;22;20164;-81
2021/09/14 08:36:13;;;;;;;11.70;8.63;;;19.30;99.90;;;;;;6299915;22;20172;-82
2021/09/14 08:38:39;;;;;;;9.45;8.07;;;19.50;99.90;;;;;;6299216;22;20174;-84
2021/09/14 08:41:08;;;;;;;9.57;7.90;;;19.60;99.90;;;;;;6298255;22;20179;-80
2021/09/14 08:43:45;;;;;;;10.75;7.88;;;19.80;99.90;;;;;;6298330;22;20273;-82
2021/09/14 08:46:14;;;;;;;7.07;5.88;;;19.80;99.90;;;;;;6298416;22;20178;-81
2021/09/14 08:48:41;;;;;;;9.02;7.20;;;19.90;99.90;;;;;;6299185;22;20171;-82
2021/09/14 08:51:08;;;;;;;8.63;6.70;;;19.80;99.90;;;;;;6299487;22;20179;-81
2021/09/14 08:53:36;;;;;;;8.30;7.07;;;19.90;99.90;;;;;;6299365;22;20168;-82
2021/09/14 08:56:03;;;;;;;16.30;6.85;;;20.00;99.90;;;;;;6298851;22;20169;-79
2021/09/14 08:58:31;;;;;;;8.27;7.32;;;20.10;99.90;;;;;;6299309;22;20172;-84
2021/09/14 09:00:58;;;;;;;8.13;7.18;;;20.20;99.90;;;;;;6297271;22;20794;-81
2021/09/14 09:03:28;;;;;;;6.68;5.53;;;20.20;99.90;;;;;;6296950;22;20176;-81
2021/09/14 09:05:56;;;;;;;10.43;5.97;;;20.30;99.90;;;;;;6295887;22;20200;-80
2021/09/14 09:08:25;;;;;;;7.30;6.55;;;20.30;99.90;;;;;;6296889;22;20168;-81
2021/09/14 09:11:04;;;;;;;8.90;6.00;;;20.20;99.90;;;;;;6296780;22;20171;-81
2021/09/14 09:13:33;;;;;;;7.55;6.35;;;20.20;99.90;;;;;;6296291;22;20186;-82
2021/09/14 09:16:00;;;;;;;8.68;6.80;;;20.20;99.90;;;;;;6297195;22;20172;-82
2021/09/14 09:18:27;;;;;;;6.85;5.80;;;20.40;99.90;;;;;;6297251;22;20179;-80
2021/09/14 09:21:02;;;;;;;7.80;6.97;;;20.60;99.90;;;;;;6296713;22;20176;-83
2021/09/14 09:23:30;;;;;;;8.98;6.63;;;20.90;99.90;;;;;;6297881;22;20179;-80
2021/09/14 09:26:08;;;;;;;8.55;7.13;;;21.20;99.90;;;;;;6296934;22;20168;-81
2021/09/14 09:28:37;;;;;;;5.80;5.20;;;21.30;99.90;;;;;;6298961;22;20171;-82
2021/09/14 09:31:09;;;;;;;8.35;7.55;;;21.50;99.90;;;;;;6299014;22;20175;-83
2021/09/14 09:33:37;;;;;;;8.13;5.70;;;21.70;99.90;;;;;;6299010;22;20728;-80
2021/09/14 09:36:05;;;;;;;8.63;6.35;;;21.80;99.90;;;;;;6301129;22;20175;-84
2021/09/14 09:38:44;;;;;;;10.15;5.93;;;21.70;99.90;;;;;;6299332;22;20176;-81
2021/09/14 09:41:15;;;;;;;7.95;6.40;;;21.60;99.90;;;;;;6298037;22;20280;-80
2021/09/14 09:43:44;;;;;;;9.05;6.32;;;21.50;99.90;;;;;;6297573;22;20160;-80
2021/09/14 09:46:17;;;;;;;6.63;5.80;;;21.40;99.90;;;;;;6298071;22;20230;-82
2021/09/14 09:48:44;;;;;;;7.03;6.32;;;21.40;99.90;;;;;;6296142;22;20255;-81
2021/09/14 09:51:11;;;;;;;7.53;6.80;;;21.50;99.90;;;;;;6298595;22;20187;-84
2021/09/14 09:53:38;;;;;;;7.88;7.07;;;21.70;99.90;;;;;;6296847;22;20173;-80
2021/09/14 09:56:05;;;;;;;7.13;6.53;;;21.70;99.90;;;;;;6296324;22;20168;-79
2021/09/14 09:58:33;;;;;;;6.95;6.13;;;21.70;99.90;;;;;;6297505;22;20179;-81
2021/09/14 10:01:07;;;;;;;8.15;7.30;;;22.00;99.90;;;;;;6297870;22;20787;-80
2021/09/14 10:03:38;;;;;;;7.57;6.80;;;22.40;99.90;;;;;;6297320;22;20163;-81
2021/09/14 10:06:09;;;;;;;6.20;5.60;;;22.70;99.90;;;;;;6297264;22;20282;-81
2021/09/14 10:08:38;;;;;;;9.23;7.72;;;22.90;99.90;;;;;;6296627;22;20174;-83
2021/09/14 10:11:04;;;;;;;7.80;6.97;;;22.90;99.90;;;;;;6296797;22;20175;-81
2021/09/14 10:13:32;;;;;;;9.50;8.07;;;23.20;99.90;;;;;;6297164;22;20702;-83
2021/09/14 10:16:01;;;;;;;12.40;9.25;;;23.40;99.90;;;;;;6297262;22;20191;-83
2021/09/14 10:18:29;;;;;;;9.98;9.02;;;23.50;99.90;;;;;;6296578;22;20168;-84
2021/09/14 10:20:57;;;;;;;11.95;9.88;;;23.50;99.90;;;;;;6296191;22;20640;-84
2021/09/14 10:23:26;;;;;;;9.75;8.73;;;23.70;99.90;;;;;;6297123;22;20164;-81
2021/09/14 10:26:04;;;;;;;10.05;9.02;;;23.80;99.90;;;;;;6297417;22;20192;-83
2021/09/14 10:28:43;;;;;;;10.27;9.13;;;23.90;99.90;;;;;;6297671;22;20175;-84
2021/09/14 10:31:22;;;;;;;11.48;9.43;;;23.80;99.90;;;;;;6298520;22;20160;-84
2021/09/14 10:34:01;;;;;;;11.35;10.18;;;23.80;99.90;;;;;;6298033;22;20556;-81
2021/09/14 10:36:28;;;;;;;10.75;9.70;;;23.80;99.90;;;;;;6296287;22;20168;-82
2021/09/14 10:38:55;;;;;;;12.07;10.77;;;23.90;99.90;;;;;;6296889;22;20647;-79
2021/09/14 10:41:22;;;;;;;11.55;9.90;;;23.90;99.90;;;;;;6295648;22;20187;-80
2021/09/14 10:43:57;;;;;;;8.20;7.40;;;24.10;99.90;;;;;;6295343;22;20252;-80
2021/09/14 10:46:26;;;;;;;10.68;9.55;;;24.40;99.90;;;;;;6295191;22;20171;-83
2021/09/14 10:48:53;;;;;;;12.50;10.98;;;24.50;99.90;;;;;;6296527;22;20179;-82
2021/09/14 10:51:21;;;;;;;12.80;10.80;;;24.60;99.90;;;;;;6296580;22;20163;-83
2021/09/14 10:53:56;;;;;;;9.98;8.98;;;24.70;99.90;;;;;;6296688;22;20342;-81
2021/09/14 10:56:23;;;;;;;12.68;11.57;;;24.60;99.90;;;;;;6296045;22;20178;-82
2021/09/14 10:58:50;;;;;;;10.88;9.55;;;24.60;99.90;;;;;;6297290;22;20183;-82
2021/09/14 11:01:23;;;;;;;11.25;10.23;;;24.70;99.90;;;;;;6297080;22;20184;-82
2021/09/14 11:04:05;;;;;;;14.05;12.20;;;24.70;99.90;;;;;;6297451;22;20233;-85
2021/09/14 11:06:32;;;;;;;12.20;10.95;;;24.60;99.90;;;;;;6299363;22;20172;-81
2021/09/14 11:09:00;;;;;;;12.30;11.02;;;24.60;99.90;;;;;;6300606;22;20179;-82
2021/09/14 11:11:27;;;;;;;14.18;12.73;;;24.70;99.90;;;;;;6299069;22;20172;-82
2021/09/14 11:13:55;;;;;;;12.75;10.25;;;24.50;99.90;;;;;;6298291;22;20178;-83
2021/09/14 11:16:22;;;;;;;12.82;11.20;;;24.70;99.90;;;;;;6296577;22;20426;-82
2021/09/14 11:18:50;;;;;;;10.63;9.52;;;24.80;99.90;;;;;;6296778;22;20164;-82
2021/09/14 11:21:20;;;;;;;14.50;13.05;;;25.10;99.90;;;;;;6297729;22;20251;-82
2021/09/14 11:23:48;;;;;;;11.85;10.70;;;25.20;99.90;;;;;;6297202;22;20168;-81
2021/09/14 11:26:16;;;;;;;14.23;12.73;;;25.20;99.90;;;;;;6296769;22;20199;-81
2021/09/14 11:28:55;;;;;;;12.75;11.40;;;24.90;99.90;;;;;;6296604;22;20164;-81
2021/09/14 11:31:22;;;;;;;12.05;10.80;;;24.90;99.90;;;;;;6296845;22;20175;-82
2021/09/14 11:33:49;;;;;;;13.77;12.40;;;25.00;99.90;;;;;;6296708;22;20184;-82
2021/09/14 11:36:18;;;;;;;13.88;12.45;;;24.70;99.90;;;;;;6296853;22;20168;-81
2021/09/14 11:38:44;;;;;;;14.18;12.77;;;24.60;99.90;;;;;;6296806;22;20167;-80
2021/09/14 11:41:13;;;;;;;14.75;13.30;;;24.40;99.90;;;;;;6296676;22;20175;-82
2021/09/14 11:43:43;;;;;;;11.88;10.77;;;24.30;99.90;;;;;;6296948;22;20187;-80
2021/09/14 11:46:14;;;;;;;12.57;11.35;;;24.40;99.90;;;;;;6296314;22;20434;-82
2021/09/14 11:48:42;;;;;;;16.05;12.98;;;24.40;99.90;;;;;;6295605;22;20172;-83
2021/09/14 11:51:11;;;;;;;12.65;11.25;;;24.40;99.90;;;;;;6298219;22;20168;-81
2021/09/14 11:53:40;;;;;;;11.98;10.70;;;24.40;99.90;;;;;;6297247;22;20172;-82
2021/09/14 11:56:13;;;;;;;14.57;13.18;;;24.60;99.90;;;;;;6297776;22;20445;-82
2021/09/14 11:58:43;;;;;;;14.65;11.23;;;24.70;99.90;;;;;;6298242;22;20180;-81
2021/09/14 12:01:10;;;;;;;12.00;9.88;;;24.80;99.90;;;;;;6296758;22;20273;-81
2021/09/14 12:03:38;;;;;;;13.25;11.73;;;25.00;99.90;;;;;;6297511;22;20172;-81
2021/09/14 12:06:06;;;;;;;12.30;11.10;;;25.10;99.90;;;;;;6297270;22;20215;-82
2021/09/14 12:08:34;;;;;;;13.75;11.93;;;25.30;99.90;;;;;;6298357;22;20183;-82
2021/09/14 12:11:04;;;;;;;14.13;12.43;;;25.30;99.90;;;;;;6299634;22;20174;-84
2021/09/14 12:13:37;;;;;;;13.35;11.95;;;25.20;99.90;;;;;;6299908;22;20494;-80
2021/09/14 12:16:08;;;;;;;14.95;13.45;;;25.10;99.90;;;;;;6298937;22;20628;-82
2021/09/14 12:18:37;;;;;;;13.15;11.75;;;25.00;99.90;;;;;;6296455;22;20221;-81
2021/09/14 12:21:03;;;;;;;15.95;14.27;;;24.80;99.90;;;;;;6299255;22;20172;-83
2021/09/14 12:23:31;;;;;;;14.75;13.18;;;24.90;99.90;;;;;;6299825;22;20893;-82
2021/09/14 12:25:58;;;;;;;13.57;12.27;;;24.90;99.90;;;;;;6300040;22;20669;-85
2021/09/14 12:28:26;;;;;;;16.90;13.48;;;24.80;99.90;;;;;;6298305;22;20176;-82
2021/09/14 12:30:53;;;;;;;14.40;12.90;;;24.60;99.90;;;;;;6299802;22;20172;-84
2021/09/14 12:33:20;;;;;;;11.80;10.68;;;24.70;99.90;;;;;;6298917;22;20180;-83
2021/09/14 12:35:46;;;;;;;14.82;13.32;;;24.70;99.90;;;;;;6298336;22;20607;-81
2021/09/14 12:38:13;;;;;;;13.30;11.63;;;24.70;99.90;;;;;;6298592;22;20174;-81
2021/09/14 12:40:40;;;;;;;15.10;13.15;;;24.70;99.90;;;;;;6298411;22;20730;-81
2021/09/14 12:43:07;;;;;;;12.30;11.10;;;24.70;99.90;;;;;;6296385;22;20172;-80
2021/09/14 12:45:35;;;;;;;13.02;10.40;;;24.80;99.90;;;;;;6298122;22;20188;-84
2021/09/14 12:48:02;;;;;;;12.18;10.95;;;24.80;99.90;;;;;;6297523;22;20209;-83
2021/09/14 12:50:29;;;;;;;17.52;13.50;;;24.80;99.90;;;;;;6292380;22;20414;-83
2021/09/14 12:52:55;;;;;;;14.20;12.90;;;24.80;99.90;;;;;;6298446;22;20176;-83
2021/09/14 12:55:23;;;;;;;16.95;13.10;;;24.70;99.90;;;;;;6295930;22;20627;-80
2021/09/14 12:57:50;;;;;;;14.07;12.20;;;24.60;99.90;;;;;;6294739;22;20177;-82
2021/09/14 13:00:17;;;;;;;14.35;12.20;;;24.50;99.90;;;;;;6296275;22;20249;-80
2021/09/14 13:02:46;;;;;;;13.05;11.85;;;24.50;99.90;;;;;;6296103;22;20620;-85
2021/09/14 13:05:12;;;;;;;16.75;13.10;;;24.40;99.90;;;;;;6296392;22;20710;-83
2021/09/14 13:07:39;;;;;;;15.90;12.82;;;24.30;99.90;;;;;;6298606;22;20199;-82
2021/09/14 13:10:09;;;;;;;13.30;11.93;;;24.20;99.90;;;;;;6298502;22;20191;-83
2021/09/14 13:12:36;;;;;;;11.60;10.25;;;24.20;99.90;;;;;;6299324;22;20171;-85
2021/09/14 13:17:49;;;;;;;14.00;12.00;;;24.10;99.90;;;;;;6298601;22;20170;-83
2021/09/14 13:20:16;;;;;;;16.70;12.48;;;24.10;99.90;;;;;;6298654;22;20172;-83
2021/09/14 13:22:43;;;;;;;12.60;10.43;;;23.90;99.90;;;;;;6298298;22;20176;-82
2021/09/14 13:25:11;;;;;;;17.27;15.48;;;23.90;99.90;;;;;;6297353;22;20206;-83
2021/09/14 13:27:38;;;;;;;15.27;13.07;;;23.90;99.90;;;;;;6299782;22;20176;-86
2021/09/14 13:30:06;;;;;;;15.63;14.00;;;23.80;99.90;;;;;;6298573;22;20171;-86
2021/09/14 13:32:33;;;;;;;12.48;11.30;;;23.80;99.90;;;;;;6296663;22;20172;-86
2021/09/14 13:35:01;;;;;;;12.10;10.90;;;23.90;99.90;;;;;;6296556;22;20171;-83